Time;durP1;ratioP1;P1;durP2;ratioP2;P2;SDS_P1;SDS_P2;PMS_P1;PMS_P2;Temp;Humidity;BMP_temperature;BMP_pressure;BME280_temperature;BME280_humidity;BME280_pressure;Samples;Min_cycle;Max_cycle;Signal;HPM_P1;HPM_P2
2023/04/21 00:00:47;;;;;;;18.38;10.93;;;;;;;3.33;100.00;98511.47;4982123;28;20038;-80
2023/04/21 00:03:12;;;;;;;19.52;11.27;;;;;;;3.28;100.00;98494.09;5000439;28;20416;-81
2023/04/21 00:05:41;;;;;;;22.25;11.25;;;;;;;3.58;100.00;98537.25;4989892;28;20025;-80
2023/04/21 00:08:07;;;;;;;25.05;12.45;;;;;;;3.56;100.00;98536.59;5009165;28;20022;-81
2023/04/21 00:10:32;;;;;;;28.17;13.27;;;;;;;3.50;100.00;98535.41;4995538;28;20512;-83
2023/04/21 00:12:58;;;;;;;27.15;12.43;;;;;;;3.24;100.00;98482.06;4994578;28;20042;-80
2023/04/21 00:15:23;;;;;;;24.95;11.57;;;;;;;3.31;100.00;98498.28;5015792;28;20034;-78
2023/04/21 00:17:48;;;;;;;23.73;12.68;;;;;;;3.48;100.00;98513.38;5006442;28;20030;-78
2023/04/21 00:20:14;;;;;;;31.08;13.48;;;;;;;3.66;100.00;98529.25;5004860;28;20040;-79
2023/04/21 00:22:39;;;;;;;26.92;13.32;;;;;;;3.53;100.00;98507.50;4990005;28;20014;-81
2023/04/21 00:25:05;;;;;;;25.77;13.45;;;;;;;3.54;100.00;98527.91;5007172;28;20079;-78
2023/04/21 00:27:31;;;;;;;27.83;13.13;;;;;;;3.45;100.00;98516.34;5002705;28;20041;-78
2023/04/21 00:29:56;;;;;;;25.20;12.55;;;;;;;3.32;100.00;98491.94;4990451;28;20022;-80
2023/04/21 00:32:21;;;;;;;28.17;13.23;;;;;;;3.45;100.00;98507.50;5011233;28;20026;-80
2023/04/21 00:34:46;;;;;;;27.98;12.68;;;;;;;3.21;100.00;98463.69;4979928;28;20018;-78
2023/04/21 00:37:12;;;;;;;24.17;11.20;;;;;;;3.38;100.00;98504.66;5007257;28;20026;-79
2023/04/21 00:39:37;;;;;;;23.60;12.43;;;;;;;3.15;100.00;98472.38;5001102;28;20026;-78
2023/04/21 00:42:02;;;;;;;23.83;12.02;;;;;;;3.29;100.00;98503.78;4996514;28;20061;-77
2023/04/21 00:44:28;;;;;;;25.23;12.52;;;;;;;3.26;100.00;98504.13;5021117;28;20092;-79
2023/04/21 00:46:53;;;;;;;24.90;13.27;;;;;;;3.25;100.00;98510.47;4974567;28;20023;-80
2023/04/21 00:49:18;;;;;;;27.00;13.52;;;;;;;3.27;100.00;98503.16;4999237;28;20103;-80
2023/04/21 00:51:44;;;;;;;23.15;13.05;;;;;;;3.15;100.00;98487.56;5000661;28;20014;-81
2023/04/21 00:54:11;;;;;;;23.38;11.52;;;;;;;3.03;100.00;98462.97;4983822;28;20030;-79
2023/04/21 00:56:36;;;;;;;27.02;12.75;;;;;;;3.35;100.00;98509.47;5007797;28;20177;-79
2023/04/21 00:59:02;;;;;;;22.63;12.13;;;;;;;3.11;100.00;98454.97;5001417;28;20508;-80
2023/04/21 01:01:28;;;;;;;28.88;13.30;;;;;;;3.43;100.00;98496.13;4999548;28;20042;-79
2023/04/21 01:03:58;;;;;;;23.23;12.52;;;;;;;3.39;100.00;98505.50;5002168;28;20063;-79
2023/04/21 01:06:24;;;;;;;24.48;12.75;;;;;;;3.21;100.00;98477.03;4999165;28;20064;-78
2023/04/21 01:08:51;;;;;;;28.45;13.48;;;;;;;3.36;100.00;98500.47;5005511;28;20484;-79
2023/04/21 01:11:16;;;;;;;26.67;12.70;;;;;;;3.25;100.00;98465.03;4997068;28;20019;-79
2023/04/21 01:13:42;;;;;;;21.73;10.95;;;;;;;3.28;100.00;98485.25;5001767;28;20081;-79
2023/04/21 01:16:07;;;;;;;20.80;10.98;;;;;;;3.23;100.00;98490.25;4985547;28;20033;-80
2023/04/21 01:18:33;;;;;;;25.00;11.80;;;;;;;3.25;100.00;98494.44;5008496;28;20038;-80
2023/04/21 01:21:00;;;;;;;23.50;11.85;;;;;;;3.19;100.00;98479.03;5005682;28;20057;-79
2023/04/21 01:23:25;;;;;;;24.48;12.80;;;;;;;3.25;100.00;98499.78;5001405;28;20065;-81
2023/04/21 01:25:51;;;;;;;24.98;12.25;;;;;;;3.34;100.00;98513.16;5001136;28;20022;-79
2023/04/21 01:28:24;;;;;;;22.33;11.18;;;;;;;3.30;100.00;98501.94;4987146;28;20049;-80
2023/04/21 01:30:49;;;;;;;21.80;10.98;;;;;;;3.28;100.00;98494.09;5005541;28;20110;-78
2023/04/21 01:33:16;;;;;;;22.10;11.10;;;;;;;3.25;100.00;98486.44;4994700;28;20025;-79
2023/04/21 01:35:41;;;;;;;24.17;11.40;;;;;;;3.26;100.00;98501.44;5012245;28;20078;-79
2023/04/21 01:38:07;;;;;;;23.92;11.85;;;;;;;3.28;100.00;98493.28;5002085;28;20026;-78
2023/04/21 01:40:32;;;;;;;23.77;12.18;;;;;;;3.25;100.00;98483.75;4990107;28;20116;-78
2023/04/21 01:42:58;;;;;;;19.77;11.00;;;;;;;3.16;100.00;98479.38;4989636;28;20030;-78
2023/04/21 01:45:23;;;;;;;22.85;11.27;;;;;;;3.12;100.00;98450.47;4999911;28;20041;-78
2023/04/21 01:47:48;;;;;;;21.02;11.13;;;;;;;3.20;100.00;98474.56;5005911;28;20030;-79
2023/04/21 01:50:14;;;;;;;19.95;10.60;;;;;;;3.12;100.00;98464.69;4986009;28;20026;-79
2023/04/21 01:52:40;;;;;;;22.67;10.38;;;;;;;3.20;100.00;98493.25;5000536;28;20432;-78
2023/04/21 01:55:06;;;;;;;19.00;10.30;;;;;;;3.06;100.00;98474.16;4996746;28;20034;-82
2023/04/21 01:57:31;;;;;;;19.33;10.38;;;;;;;3.09;100.00;98489.03;4998713;28;20058;-77
2023/04/21 01:59:57;;;;;;;25.50;12.43;;;;;;;3.05;100.00;98483.19;4973620;28;20080;-80
2023/04/21 02:02:22;;;;;;;23.05;10.68;;;;;;;2.88;100.00;98468.09;4990886;28;20108;-78
2023/04/21 02:04:47;;;;;;;24.45;12.05;;;;;;;2.93;100.00;98487.16;4995696;28;20109;-79
2023/04/21 02:07:12;;;;;;;19.85;10.20;;;;;;;2.64;100.00;98460.84;4975125;28;20026;-78
2023/04/21 02:09:38;;;;;;;21.45;11.32;;;;;;;2.86;100.00;98491.50;4990045;28;20026;-77
2023/04/21 02:12:03;;;;;;;21.73;11.70;;;;;;;2.85;100.00;98492.47;5009106;28;20019;-77
2023/04/21 02:14:29;;;;;;;23.35;11.65;;;;;;;2.62;100.00;98462.88;4976109;28;20029;-78
2023/04/21 02:16:55;;;;;;;25.95;12.52;;;;;;;3.02;100.00;98496.06;4995822;28;20100;-79
2023/04/21 02:19:20;;;;;;;23.23;11.82;;;;;;;2.98;100.00;98500.88;4978781;28;20527;-77
2023/04/21 02:21:45;;;;;;;26.50;12.15;;;;;;;3.10;100.00;98495.25;4993979;28;20535;-78
2023/04/21 02:24:11;;;;;;;26.30;12.75;;;;;;;2.70;100.00;98446.88;4972438;28;20026;-77
2023/04/21 02:26:36;;;;;;;21.27;10.23;;;;;;;2.72;100.00;98476.91;4976427;28;20033;-77
2023/04/21 02:29:02;;;;;;;22.05;11.13;;;;;;;2.68;100.00;98482.75;4972071;28;20496;-79
2023/04/21 02:31:27;;;;;;;21.10;11.00;;;;;;;2.59;100.00;98466.69;4993217;28;20134;-77
2023/04/21 02:33:53;;;;;;;25.95;10.95;;;;;;;2.60;100.00;98480.88;4996122;28;20412;-77
2023/04/21 02:36:18;;;;;;;21.13;10.85;;;;;;;2.72;100.00;98498.28;4976066;28;20026;-77
2023/04/21 02:38:44;;;;;;;26.45;12.43;;;;;;;2.68;100.00;98475.56;4992496;28;20082;-77
2023/04/21 02:41:09;;;;;;;28.25;11.73;;;;;;;2.63;100.00;98456.53;4975929;28;20029;-78
2023/04/21 02:43:35;;;;;;;22.50;10.98;;;;;;;2.65;100.00;98470.56;4975349;28;20037;-77
2023/04/21 02:46:05;;;;;;;26.08;13.00;;;;;;;2.53;100.00;98461.16;4985003;28;20539;-79
2023/04/21 02:48:30;;;;;;;23.38;11.90;;;;;;;2.51;100.00;98469.31;5010701;28;20113;-78
2023/04/21 02:50:56;;;;;;;22.58;12.05;;;;;;;2.44;100.00;98467.44;4994121;28;20080;-79
2023/04/21 02:53:21;;;;;;;23.40;11.60;;;;;;;2.47;100.00;98472.50;5002239;28;20023;-78
2023/04/21 02:55:46;;;;;;;21.50;11.25;;;;;;;2.47;100.00;98483.16;4992907;28;20022;-77
2023/04/21 02:58:13;;;;;;;24.75;11.68;;;;;;;2.44;100.00;98473.63;4989342;28;20137;-77
2023/04/21 03:00:38;;;;;;;25.67;11.80;;;;;;;2.43;100.00;98474.63;4982487;28;20108;-79
2023/04/21 03:03:04;;;;;;;26.50;11.65;;;;;;;2.47;100.00;98480.50;4983601;28;20484;-78
2023/04/21 03:05:29;;;;;;;23.88;10.63;;;;;;;2.49;100.00;98479.34;4994091;28;20538;-76
2023/04/21 03:07:54;;;;;;;24.02;11.50;;;;;;;2.26;100.00;98448.84;4992020;28;20022;-77
2023/04/21 03:10:20;;;;;;;23.55;11.82;;;;;;;2.42;100.00;98487.13;5009217;28;20023;-78
2023/04/21 03:12:45;;;;;;;25.17;11.98;;;;;;;2.44;100.00;98492.34;5009409;28;20022;-78
2023/04/21 03:15:11;;;;;;;22.23;10.93;;;;;;;2.10;100.00;98454.94;4995248;28;20037;-79
2023/04/21 03:17:37;;;;;;;22.48;10.80;;;;;;;2.19;100.00;98488.69;5008071;28;20355;-78
2023/04/21 03:20:05;;;;;;;21.50;11.00;;;;;;;1.98;100.00;98454.34;5009499;28;20019;-77
2023/04/21 03:22:30;;;;;;;21.63;10.10;;;;;;;1.96;100.00;98473.22;4991329;28;20096;-78
2023/04/21 03:24:56;;;;;;;21.45;10.55;;;;;;;1.96;100.00;98494.56;5004160;28;20258;-78
2023/04/21 03:27:21;;;;;;;20.05;9.32;;;;;;;1.90;100.00;98475.66;5004744;28;20081;-78
2023/04/21 03:29:46;;;;;;;17.17;9.20;;;;;;;1.73;100.00;98461.38;4974803;28;20032;-77
2023/04/21 03:32:11;;;;;;;19.85;9.93;;;;;;;1.92;100.00;98484.34;4996411;28;20022;-79
2023/04/21 03:34:37;;;;;;;23.15;9.88;;;;;;;1.96;100.00;98475.03;5009197;28;20034;-77
2023/04/21 03:37:02;;;;;;;23.63;10.38;;;;;;;2.02;100.00;98471.75;4995490;28;20018;-77
2023/04/21 03:39:27;;;;;;;25.88;11.23;;;;;;;1.86;100.00;98432.47;5009790;28;20057;-79
2023/04/21 03:41:53;;;;;;;22.58;11.02;;;;;;;2.12;100.00;98469.81;5004126;28;20477;-78
2023/04/21 03:44:18;;;;;;;26.70;11.18;;;;;;;2.10;100.00;98452.28;4981120;28;20085;-78
2023/04/21 03:46:43;;;;;;;26.40;12.15;;;;;;;1.94;100.00;98437.84;4995157;28;20521;-77
2023/04/21 03:49:09;;;;;;;22.83;10.98;;;;;;;1.88;100.00;98448.28;4994821;28;20105;-77
2023/04/21 03:51:34;;;;;;;22.30;11.05;;;;;;;1.88;100.00;98465.13;5004329;28;20026;-77
2023/04/21 03:53:59;;;;;;;30.75;10.95;;;;;;;1.89;100.00;98469.50;4999576;28;20050;-78
2023/04/21 03:56:24;;;;;;;23.95;11.98;;;;;;;1.90;100.00;98473.00;4963657;28;20034;-82
2023/04/21 03:58:52;;;;;;;25.42;12.05;;;;;;;1.84;100.00;98454.94;4978602;28;20506;-79
2023/04/21 04:01:17;;;;;;;31.15;12.70;;;;;;;1.97;100.00;98461.53;4994832;28;20030;-84
2023/04/21 04:06:51;;;;;;;28.63;10.80;;;;;;;2.04;100.00;98450.22;5012778;28;20046;-79
2023/04/21 04:09:16;;;;;;;26.45;12.18;;;;;;;2.00;100.00;98459.56;5011318;28;20038;-78
2023/04/21 04:11:42;;;;;;;27.08;11.77;;;;;;;1.82;100.00;98444.44;4998757;28;20022;-79
2023/04/21 04:14:07;;;;;;;19.65;10.02;;;;;;;1.93;100.00;98468.16;5002398;28;20033;-79
2023/04/21 04:16:51;;;;;;;25.50;11.45;;;;;;;1.81;100.00;98477.44;5014318;28;20026;-85
2023/04/21 04:19:30;;;;;;;113.82;13.40;;;;;;;1.88;100.00;98481.13;5017008;28;20026;-84
2023/04/21 04:21:58;;;;;;;177.75;14.93;;;;;;;1.68;100.00;98455.69;5003643;28;20041;-79
2023/04/21 04:24:25;;;;;;;26.95;11.63;;;;;;;1.58;100.00;98415.75;4970042;28;20039;-81
2023/04/21 04:26:52;;;;;;;26.33;11.85;;;;;;;1.89;100.00;98482.81;5018087;28;20033;-80
2023/04/21 04:29:18;;;;;;;25.70;12.52;;;;;;;1.77;100.00;98462.72;4984972;28;20399;-80
2023/04/21 04:31:44;;;;;;;29.23;12.45;;;;;;;1.98;100.00;98489.88;4983212;28;20130;-81
2023/04/21 04:34:10;;;;;;;32.22;14.93;;;;;;;2.01;100.00;98493.22;5012645;28;20026;-81
2023/04/21 04:36:35;;;;;;;53.70;13.60;;;;;;;1.28;100.00;98417.88;4981957;28;20057;-80
2023/04/21 04:39:58;;;;;;;33.17;12.88;;;;;;;1.32;100.00;98418.41;5024557;28;20006;-86
2023/04/21 04:42:39;;;;;;;31.02;12.35;;;;;;;1.37;100.00;98410.78;5010490;28;20047;-84
2023/04/21 04:48:28;;;;;;;30.23;13.50;;;;;;;1.79;100.00;98436.75;4984040;28;20050;-78
2023/04/21 04:51:09;;;;;;;36.83;14.63;;;;;;;2.06;100.00;98453.56;4997889;28;20041;-89
2023/04/21 04:53:34;;;;;;;38.58;14.75;;;;;;;2.15;100.00;98461.47;5006709;28;20129;-79
2023/04/21 04:55:59;;;;;;;155.32;17.65;;;;;;;2.25;100.00;98495.22;4995064;28;20100;-79
2023/04/21 04:58:25;;;;;;;242.45;18.73;;;;;;;2.26;100.00;98516.41;4979336;28;20047;-79
2023/04/21 05:00:50;;;;;;;148.00;16.83;;;;;;;2.21;100.00;98494.69;4994548;28;20026;-80
2023/04/21 05:03:16;;;;;;;62.17;15.93;;;;;;;1.94;100.00;98445.00;4977860;28;20046;-80
2023/04/21 05:05:41;;;;;;;38.42;15.38;;;;;;;2.48;100.00;98512.34;4994231;28;20101;-81
2023/04/21 05:08:12;;;;;;;38.97;14.70;;;;;;;2.59;100.00;98482.72;4998186;28;20105;-86
2023/04/21 05:10:37;;;;;;;38.88;15.10;;;;;;;2.77;100.00;98484.44;4979112;28;20038;-78
2023/04/21 05:13:03;;;;;;;41.92;15.65;;;;;;;3.14;100.00;98526.81;5008703;28;20025;-85
2023/04/21 05:15:29;;;;;;;36.10;14.82;;;;;;;3.02;100.00;98520.94;4962956;28;20092;-79
2023/04/21 05:17:54;;;;;;;35.65;14.68;;;;;;;3.15;100.00;98509.78;4986211;28;20022;-79
2023/04/21 05:20:20;;;;;;;37.20;14.70;;;;;;;3.32;100.00;98499.94;4992186;28;20035;-82
2023/04/21 05:22:45;;;;;;;31.30;14.32;;;;;;;3.47;100.00;98500.97;4981662;28;20030;-83
2023/04/21 05:25:14;;;;;;;31.80;13.38;;;;;;;3.42;100.00;98499.81;5000541;28;20038;-81
2023/04/21 05:27:40;;;;;;;28.50;13.00;;;;;;;3.74;100.00;98536.44;5011305;28;20392;-83
2023/04/21 05:30:07;;;;;;;24.85;12.25;;;;;;;3.67;100.00;98512.22;5008437;28;20065;-81
2023/04/21 05:32:32;;;;;;;25.40;11.77;;;;;;;3.76;100.00;98504.19;4983448;28;20030;-81
2023/04/21 05:34:59;;;;;;;16.88;9.73;;;;;;;3.76;100.00;98490.81;4980385;28;20085;-86
2023/04/21 05:37:24;;;;;;;19.48;10.20;;;;;;;3.92;100.00;98515.69;4997531;28;20141;-79
2023/04/21 05:39:50;;;;;;;20.83;9.10;;;;;;;3.98;100.00;98537.44;4978538;28;20034;-82
2023/04/21 05:42:17;;;;;;;18.02;9.63;;;;;;;3.79;100.00;98501.16;4976091;28;20022;-81
2023/04/21 05:44:42;;;;;;;23.85;9.50;;;;;;;3.52;100.00;98505.84;4978453;28;20033;-82
2023/04/21 05:47:21;;;;;;;17.02;8.20;;;;;;;3.62;100.00;98535.94;5005015;28;20018;-82
2023/04/21 05:49:49;;;;;;;16.95;9.00;;;;;;;3.69;100.00;98507.53;4981111;28;20034;-85
2023/04/21 05:52:15;;;;;;;22.15;10.73;;;;;;;3.67;100.00;98503.34;4992065;28;20456;-75
2023/04/21 05:54:42;;;;;;;17.27;9.38;;;;;;;3.81;100.00;98505.34;4994339;28;20030;-82
2023/04/21 05:57:07;;;;;;;19.25;9.18;;;;;;;3.79;100.00;98463.72;4994969;28;20022;-79
2023/04/21 05:59:33;;;;;;;18.15;8.82;;;;;;;4.23;100.00;98498.13;4992431;28;20045;-77
2023/04/21 06:01:58;;;;;;;15.32;8.82;;;;;;;4.35;100.00;98502.94;4992558;28;20109;-79
2023/04/21 06:04:24;;;;;;;14.40;7.85;;;;;;;4.34;100.00;98484.34;4997812;28;20118;-77
2023/04/21 06:06:49;;;;;;;17.27;8.35;;;;;;;4.45;100.00;98481.31;4994964;28;20113;-78
2023/04/21 06:09:14;;;;;;;18.58;9.02;;;;;;;4.69;100.00;98460.78;4988726;28;20029;-78
2023/04/21 06:11:40;;;;;;;13.63;8.10;;;;;;;5.00;100.00;98467.03;4993911;28;20054;-77
2023/04/21 06:14:06;;;;;;;14.38;8.07;;;;;;;5.25;100.00;98478.41;5001112;28;20073;-82
2023/04/21 06:16:32;;;;;;;13.02;7.80;;;;;;;5.54;100.00;98459.97;4998730;28;20055;-83
2023/04/21 06:18:58;;;;;;;16.00;9.35;;;;;;;5.72;100.00;98453.25;4977123;28;20046;-80
2023/04/21 06:21:24;;;;;;;14.52;8.23;;;;;;;6.12;100.00;98471.88;4980191;28;20033;-82
2023/04/21 06:23:49;;;;;;;13.25;7.43;;;;;;;6.27;100.00;98435.13;4996312;28;20026;-80
2023/04/21 06:26:15;;;;;;;13.93;8.25;;;;;;;6.83;100.00;98404.22;5004796;28;20030;-85
2023/04/21 06:28:40;;;;;;;10.95;6.88;;;;;;;7.41;100.00;98427.41;5007416;28;20034;-84
2023/04/21 06:31:05;;;;;;;10.75;6.85;;;;;;;7.95;100.00;98412.50;4982244;28;20033;-77
2023/04/21 06:33:31;;;;;;;11.93;6.38;;;;;;;8.00;100.00;98417.31;4992238;28;20392;-79
2023/04/21 06:35:56;;;;;;;11.73;7.55;;;;;;;8.25;100.00;98404.19;4994657;28;20558;-74
2023/04/21 06:38:22;;;;;;;12.55;6.75;;;;;;;8.04;100.00;98413.19;4992766;28;20499;-76
2023/04/21 06:40:47;;;;;;;11.75;7.22;;;;;;;8.63;100.00;98409.22;5001414;28;20396;-83
2023/04/21 06:43:14;;;;;;;12.07;7.25;;;;;;;9.23;100.00;98399.47;4973880;28;20069;-79
2023/04/21 06:45:39;;;;;;;10.25;6.50;;;;;;;9.24;100.00;98427.28;4989229;28;20051;-83
2023/04/21 06:51:26;;;;;;;16.65;8.82;;;;;;;7.96;100.00;98422.25;5003339;28;20037;-86
2023/04/21 06:53:52;;;;;;;17.80;8.13;;;;;;;8.07;100.00;98437.91;5007980;28;20026;-77
2023/04/21 06:56:17;;;;;;;14.65;8.18;;;;;;;8.47;100.00;98405.00;4993990;28;20026;-78
2023/04/21 06:58:43;;;;;;;15.70;7.55;;;;;;;8.53;100.00;98440.06;4995817;28;20476;-74
2023/04/21 07:01:08;;;;;;;13.18;7.00;;;;;;;10.37;100.00;98427.31;4981721;28;20029;-80
2023/04/21 07:03:33;;;;;;;14.88;7.32;;;;;;;11.73;100.00;98421.66;4981588;28;20496;-85
2023/04/21 07:05:59;;;;;;;11.38;7.10;;;;;;;13.76;100.00;98419.78;4997383;28;20130;-84
2023/04/21 07:08:24;;;;;;;11.60;7.57;;;;;;;14.15;100.00;98409.31;4984445;28;20033;-84
2023/04/21 07:10:50;;;;;;;11.68;6.95;;;;;;;14.82;100.00;98410.81;4997863;28;20026;-83
2023/04/21 07:13:16;;;;;;;9.23;7.32;;;;;;;12.91;100.00;98406.31;5016302;28;20030;-83
2023/04/21 07:15:42;;;;;;;15.00;7.40;;;;;;;11.61;100.00;98407.19;5019253;28;20022;-83
2023/04/21 07:18:07;;;;;;;11.38;7.75;;;;;;;10.57;100.00;98411.06;5001563;28;20022;-79
2023/04/21 07:20:32;;;;;;;11.30;7.00;;;;;;;11.80;100.00;98351.16;5000293;28;20093;-81
2023/04/21 07:22:58;;;;;;;9.18;5.47;;;;;;;16.21;100.00;98382.22;5003355;28;20054;-80
2023/04/21 07:25:23;;;;;;;9.07;6.38;;;;;;;17.78;82.63;98345.25;5008537;28;20395;-77
2023/04/21 07:27:48;;;;;;;11.52;6.55;;;;;;;17.77;82.47;98387.41;4993388;28;20046;-78
2023/04/21 07:30:14;;;;;;;8.18;6.22;;;;;;;16.81;99.06;98383.38;5003195;28;20677;-78
2023/04/21 07:32:39;;;;;;;10.73;6.80;;;;;;;15.36;100.00;98388.72;4975017;28;20163;-74
2023/04/21 07:35:05;;;;;;;8.85;6.13;;;;;;;14.72;100.00;98350.69;5001483;28;20052;-73
2023/04/21 07:37:31;;;;;;;8.73;6.35;;;;;;;14.04;100.00;98363.88;4995983;28;20044;-74
2023/04/21 07:39:56;;;;;;;8.68;6.10;;;;;;;13.54;100.00;98350.72;4994052;28;20456;-79
2023/04/21 07:42:21;;;;;;;9.15;6.15;;;;;;;13.55;100.00;98364.09;4994272;28;20118;-76
2023/04/21 07:44:47;;;;;;;9.07;6.70;;;;;;;13.59;100.00;98365.25;5005237;28;20018;-77
2023/04/21 07:47:13;;;;;;;8.98;5.85;;;;;;;13.42;100.00;98358.03;4975016;28;20030;-77
2023/04/21 07:49:38;;;;;;;10.80;6.40;;;;;;;12.86;100.00;98355.44;4978337;28;20057;-75
2023/04/21 07:52:03;;;;;;;8.95;6.47;;;;;;;12.33;100.00;98347.94;5001309;28;20022;-79
2023/04/21 07:54:29;;;;;;;8.95;6.50;;;;;;;12.52;100.00;98361.50;4980725;28;20022;-80
2023/04/21 07:56:54;;;;;;;10.68;6.47;;;;;;;12.45;100.00;98356.97;4991504;28;20023;-73
2023/04/21 07:59:20;;;;;;;9.25;6.93;;;;;;;12.03;100.00;98356.81;4986298;28;20449;-78
2023/04/21 08:01:45;;;;;;;10.25;6.45;;;;;;;11.97;100.00;98359.56;5002605;28;20022;-77
2023/04/21 08:04:11;;;;;;;8.52;5.95;;;;;;;12.32;100.00;98357.13;4990185;28;20072;-75
2023/04/21 08:06:36;;;;;;;9.77;6.28;;;;;;;12.31;100.00;98352.75;4990083;28;20058;-74
2023/04/21 08:09:02;;;;;;;9.30;6.10;;;;;;;12.72;100.00;98351.22;4983970;28;20330;-76
2023/04/21 08:11:27;;;;;;;11.57;6.32;;;;;;;13.37;100.00;98343.25;4990494;28;20018;-75
2023/04/21 08:13:53;;;;;;;7.35;5.57;;;;;;;14.73;100.00;98349.63;4987121;28;20046;-77
2023/04/21 08:16:19;;;;;;;9.38;5.50;;;;;;;15.78;100.00;98351.84;4976665;28;20022;-75
2023/04/21 08:18:44;;;;;;;8.60;5.70;;;;;;;16.74;100.00;98355.38;4982975;28;20022;-76
2023/04/21 08:21:10;;;;;;;7.05;5.60;;;;;;;17.79;97.42;98322.28;4989988;28;20026;-74
2023/04/21 08:23:35;;;;;;;7.35;5.07;;;;;;;19.86;82.59;98350.00;4991413;28;20027;-73
2023/04/21 08:26:03;;;;;;;6.15;4.50;;;;;;;20.96;76.62;98344.81;4995595;28;20026;-76
2023/04/21 08:28:29;;;;;;;6.90;4.65;;;;;;;23.13;64.43;98340.69;4994445;28;20045;-77
2023/04/21 08:30:54;;;;;;;8.95;4.90;;;;;;;25.12;53.06;98322.53;4994281;28;20030;-77
2023/04/21 08:33:19;;;;;;;7.05;5.45;;;;;;;25.38;52.97;98346.94;4989369;28;20125;-79
2023/04/21 08:35:45;;;;;;;5.85;4.90;;;;;;;25.47;49.14;98351.44;4997366;28;20415;-78
2023/04/21 08:38:10;;;;;;;6.10;5.00;;;;;;;26.15;47.56;98329.28;4995296;28;20030;-76
2023/04/21 08:40:37;;;;;;;6.47;5.05;;;;;;;24.49;51.03;98360.09;5000983;28;20109;-78
2023/04/21 08:43:04;;;;;;;7.10;5.75;;;;;;;23.46;51.62;98354.59;5000601;28;20022;-79
2023/04/21 08:45:30;;;;;;;8.20;5.82;;;;;;;21.43;57.36;98343.44;4977345;28;20030;-78
2023/04/21 08:47:58;;;;;;;9.48;6.65;;;;;;;19.54;66.68;98349.41;4993737;28;20034;-77
2023/04/21 08:50:27;;;;;;;7.22;6.15;;;;;;;19.99;68.00;98321.16;5004458;28;20026;-77
2023/04/21 08:52:56;;;;;;;8.35;6.03;;;;;;;21.50;63.22;98299.91;4993501;28;20048;-79
2023/04/21 08:55:30;;;;;;;7.57;5.43;;;;;;;24.77;56.28;98326.91;4995675;28;20041;-79
2023/04/21 08:57:56;;;;;;;9.90;6.38;;;;;;;25.06;50.39;98340.41;4990931;28;20072;-73
2023/04/21 09:00:21;;;;;;;9.63;6.30;;;;;;;26.48;46.39;98317.84;4993650;28;20026;-73
2023/04/21 09:02:57;;;;;;;7.65;6.07;;;;;;;23.89;51.39;98319.38;4994140;28;20021;-73
2023/04/21 09:05:25;;;;;;;8.23;6.07;;;;;;;24.92;47.63;98327.41;4994059;28;20033;-73
2023/04/21 09:07:52;;;;;;;7.63;6.25;;;;;;;25.07;46.64;98325.44;4992874;28;20032;-81
2023/04/21 09:10:22;;;;;;;7.38;5.63;;;;;;;25.38;46.81;98333.91;4990561;28;20018;-79
2023/04/21 09:12:51;;;;;;;8.45;6.45;;;;;;;24.51;46.33;98334.91;4992670;28;20025;-83
2023/04/21 09:15:19;;;;;;;6.97;5.22;;;;;;;26.18;46.04;98342.50;4980531;28;20033;-82
2023/04/21 09:17:45;;;;;;;6.83;4.30;;;;;;;26.08;44.17;98338.03;4994175;28;20050;-71
2023/04/21 09:20:16;;;;;;;7.97;4.97;;;;;;;24.58;45.35;98341.66;4995069;28;20102;-75
2023/04/21 09:22:41;;;;;;;7.00;4.95;;;;;;;23.75;47.65;98349.72;4994158;28;20026;-72
2023/04/21 09:25:07;;;;;;;6.15;4.55;;;;;;;24.84;47.25;98324.56;5000127;28;20117;-79
2023/04/21 09:27:35;;;;;;;6.80;4.50;;;;;;;25.61;46.15;98328.41;4974185;28;20034;-73
2023/04/21 09:30:06;;;;;;;6.85;4.60;;;;;;;26.52;43.91;98335.53;4993446;28;20072;-78
2023/04/21 09:32:40;;;;;;;7.13;4.97;;;;;;;26.34;43.02;98329.88;4994628;28;20484;-85
2023/04/21 09:35:09;;;;;;;6.38;4.57;;;;;;;25.88;43.38;98308.88;5000004;28;20061;-79
2023/04/21 09:37:35;;;;;;;5.57;4.40;;;;;;;25.96;43.43;98297.06;5005590;28;20088;-80
2023/04/21 09:40:00;;;;;;;5.38;4.00;;;;;;;27.83;40.57;98306.88;4996720;28;20112;-82
2023/04/21 09:42:30;;;;;;;5.55;4.70;;;;;;;28.99;39.51;98314.13;4979696;28;20088;-75
2023/04/21 09:44:56;;;;;;;5.57;4.47;;;;;;;27.37;40.31;98327.78;4986827;28;20178;-74
2023/04/21 09:47:22;;;;;;;6.43;4.65;;;;;;;27.65;41.18;98319.13;4994089;28;20053;-74
2023/04/21 09:49:50;;;;;;;5.80;4.60;;;;;;;27.14;40.58;98317.91;4995352;28;20091;-74
2023/04/21 09:52:18;;;;;;;5.75;4.38;;;;;;;29.59;38.66;98326.03;4994605;28;20026;-74
2023/04/21 09:54:49;;;;;;;8.20;4.85;;;;;;;28.82;40.46;98308.69;4993783;28;20026;-74
2023/04/21 09:57:24;;;;;;;5.82;4.88;;;;;;;28.23;40.17;98275.19;4995101;28;20416;-74
2023/04/21 10:00:00;;;;;;;6.05;4.72;;;;;;;28.47;40.64;98294.13;4991904;28;20377;-74
2023/04/21 10:02:30;;;;;;;5.75;4.72;;;;;;;29.44;39.82;98299.59;4991316;28;20373;-74
2023/04/21 10:04:56;;;;;;;6.25;5.07;;;;;;;29.97;39.11;98299.13;4987477;28;20018;-74
2023/04/21 10:07:21;;;;;;;6.03;5.03;;;;;;;30.47;38.77;98300.88;4991031;28;20026;-73
2023/04/21 10:09:57;;;;;;;6.55;5.57;;;;;;;31.39;36.54;98285.53;4988164;28;20041;-70
2023/04/21 10:12:25;;;;;;;7.82;5.18;;;;;;;31.44;37.19;98285.28;5004251;28;20026;-70
2023/04/21 10:14:52;;;;;;;6.68;5.10;;;;;;;30.82;36.31;98292.09;4988657;28;20030;-69
2023/04/21 10:17:22;;;;;;;6.35;5.43;;;;;;;29.30;38.55;98284.31;4989749;28;20019;-69
2023/04/21 10:19:53;;;;;;;7.85;5.88;;;;;;;28.42;39.52;98293.09;4990458;28;20029;-69
2023/04/21 10:22:31;;;;;;;7.80;5.88;;;;;;;29.12;38.72;98290.00;4994286;28;20034;-69
2023/04/21 10:24:58;;;;;;;7.50;6.13;;;;;;;29.37;38.58;98274.25;4975304;28;20025;-69
2023/04/21 10:27:39;;;;;;;9.02;6.03;;;;;;;28.25;40.43;98275.69;4989804;28;20033;-74
2023/04/21 10:30:37;;;;;;;7.28;5.50;;;;;;;28.34;39.29;98274.47;4983438;28;20034;-69
2023/04/21 10:33:04;;;;;;;5.82;4.72;;;;;;;28.45;39.69;98271.38;4958527;28;20432;-70
2023/04/21 10:36:00;;;;;;;6.30;4.90;;;;;;;30.14;37.49;98262.69;4990417;28;20019;-69
2023/04/21 10:38:39;;;;;;;6.88;5.07;;;;;;;29.94;37.86;98267.16;4985047;28;20034;-70
2023/04/21 10:41:28;;;;;;;6.10;5.05;;;;;;;30.06;37.68;98267.22;4983564;28;20053;-69
2023/04/21 10:43:57;;;;;;;5.43;4.50;;;;;;;30.00;37.63;98273.34;4981369;28;20531;-69
2023/04/21 10:46:41;;;;;;;;;;;;;;;28.96;38.21;98281.41;4962547;28;20061;-70
2023/04/21 10:49:08;;;;;;;6.72;4.72;;;;;;;27.58;39.94;98269.59;4980672;28;19918;-69
2023/04/21 10:51:56;;;;;;;6.22;4.80;;;;;;;27.94;40.43;98235.03;4989888;28;20073;-69
2023/04/21 10:54:21;;;;;;;7.00;4.80;;;;;;;27.78;40.18;98240.28;4990162;28;20030;-70
2023/04/21 10:56:50;;;;;;;6.03;4.65;;;;;;;29.28;39.28;98242.84;4990906;28;20134;-69
2023/04/21 10:59:17;;;;;;;6.20;4.70;;;;;;;28.00;40.73;98236.50;4989310;28;20038;-70
2023/04/21 11:01:42;;;;;;;5.68;4.85;;;;;;;29.00;41.74;98236.97;4986350;28;20558;-69
2023/04/21 11:04:19;;;;;;;6.28;4.70;;;;;;;27.53;41.92;98248.31;4990093;28;20038;-69
2023/04/21 11:07:07;;;;;;;5.80;4.90;;;;;;;27.09;41.87;98250.28;4983305;28;20037;-70
2023/04/21 11:09:33;;;;;;;6.60;5.05;;;;;;;26.53;44.16;98259.47;4986710;28;20014;-70
2023/04/21 11:12:01;;;;;;;5.15;4.13;;;;;;;27.68;44.62;98248.97;4984852;28;20072;-69
2023/04/21 11:14:27;;;;;;;5.97;4.72;;;;;;;28.11;42.00;98239.72;4989962;28;20030;-69
2023/04/21 11:16:52;;;;;;;7.57;4.70;;;;;;;29.24;41.04;98241.91;4983464;28;20164;-70
2023/04/21 11:19:19;;;;;;;6.25;4.68;;;;;;;29.54;39.35;98245.41;4987671;28;20437;-69
2023/04/21 11:21:47;;;;;;;8.18;4.78;;;;;;;28.11;39.59;98239.72;4991843;28;20038;-72
2023/04/21 11:24:13;;;;;;;5.88;4.00;;;;;;;29.42;38.33;98235.03;4992579;28;20019;-72
2023/04/21 11:26:38;;;;;;;5.85;4.63;;;;;;;29.01;39.13;98242.22;4988591;28;20425;-71
2023/04/21 11:29:05;;;;;;;6.63;5.38;;;;;;;28.75;39.80;98245.16;4990081;28;20026;-72
2023/04/21 11:31:31;;;;;;;5.68;4.38;;;;;;;28.65;38.75;98231.66;4986432;28;20061;-71
2023/04/21 11:33:58;;;;;;;6.60;4.78;;;;;;;26.95;41.50;98223.81;4987702;28;20196;-72